Aviation Digital Data Service (ADDS)

Output produced by METARs form (0855 UTC 19 November 2018)
found at http://www.aviationweather.gov/metar/data/
 
RJOH 190800Z 02008KT 350V050 9999 -SHRA FEW020 BKN030 BKN050 13/06 Q1018
TAF RJOH 190506Z 1906/2012 35007KT 9999 FEW025 BKN050 
     BECMG 1914/1916 20005KT 
     BECMG 2000/2003 29010KT 
     BECMG 2009/2012 18005KT
       
RJOB 190800Z 33003KT 280V010 9999 FEW020 SCT060 11/05 Q1016
TAF RJOB 190508Z 1906/2012 35006KT 9999 FEW020 SCT040 
     BECMG 1921/2000 30007KT 
     BECMG 2006/2009 35005KT
       
RJOA 190800Z 34006KT 9999 FEW020 SCT050 11/03 Q1018
TAF RJOA 190505Z 1906/2012 34006KT 9999 FEW025 SCT040
       
RJOT 190800Z 24005KT 9999 FEW020 SCT035 BKN050 12/09 Q1017
TAF RJOT 190507Z 1906/2012 26006KT 9999 FEW025 BKN040 
     BECMG 2009/2012 15005KT
       
RJOC 190800Z 35010KT 9999 FEW025 SCT030 13/07 Q1018
TAF RJOC 190505Z 1906/2012 35007KT 9999 FEW025 BKN050 
     BECMG 1913/1915 17005KT 
     BECMG 2000/2003 29010KT 
     BECMG 2009/2012 17006KT
       
RJFR 190800Z 36014KT 9999 FEW025 SCT040 BKN060 15/07 Q1019
TAF RJFR 190510Z 1906/2012 36014KT 9999 FEW030 BKN050
       
RJFO 190800Z 36013KT 9999 FEW025 SCT030 BKN050 16/09 Q1017
TAF RJFO 190509Z 1906/2012 33010KT 9999 FEW030
       
RJFU 190800Z 01014KT 9999 FEW030 SCT070 15/09 Q1018
TAF RJFU 190509Z 1906/2012 35012KT 9999 FEW030 BKN045 
     BECMG 1915/1917 14005KT 
     BECMG 2000/2003 35009KT 
     BECMG 2009/2012 14003KT
       
RJFT 190800Z 30004KT 240V010 9999 FEW030 SCT040 BKN050 14/08 Q1018
TAF AMD RJFT 190647Z 1906/2012 31007KT 9999 FEW030 
     BECMG 1907/1909 05010KT 
     BECMG 2000/2003 30005KT 
     BECMG 2009/2012 06003KT
       
RJFM 190800Z 32003KT 9999 FEW015 SCT030 BKN040 15/13 Q1016
TAF RJFM 190508Z 1906/2012 31007KT 9999 FEW030 SCT045 
     BECMG 2000/2003 05006KT 
     BECMG 2009/2012 28006KT
       
RJFK 190800Z 33009KT 9999 FEW020 12/07 Q1017 RMK 1CU020 A3003 VOLCANIC ASH CLOUD S
TAF RJFK 190506Z 1906/2012 33010KT 9999 FEW020 
     BECMG 2003/2006 14006KT 
     BECMG 2009/2012 36004KT
       
ROIG 190800Z 02014KT 9999 SCT020 BKN038 BKN080 23/20 Q1016
TAF ROIG 190509Z 1906/2012 03016KT 9999 SCT020 BKN040